Aérodrome :
LOGIN :

S'inscrire | Disclaimer

   EN    FR    IT 

 










Légende :    VFR   VFR Marginal   IFR   IFR Intensif   IFR Très Intensif
Visi : 
Plafond : 
>= 8 km
>= 3000ft
5 à 8 km
1000 à 3000 ft
1500m à 5 km
500 à 1000 ft
800 à 1500m
200 à 500 ft
< 800m
< 200 ft
Symboles :   Orages  Brouillard  Fortes neiges  Fortes précipitations  Vent > 20 kt
SIGMETs :   Divers  Orages  Givrage  Turbulence  Onde Orograph.  Cendres Volcan.






- Altitude de l'aérodrome : 584 ft


LFPV - Villacoublay Vélizy

DERNIER METAR :
  • 300500Z AUTO 03016KT CAVOK M00/M09 Q1028 BECMG 02015G28KT

METARs EXPIRÉS :
  • 300430Z AUTO 03015KT CAVOK M00/M09 Q1028 BECMG 02015G28KT
  • 300400Z AUTO 03017KT CAVOK 00/M09 Q1028 BECMG 02015G28KT
  • 300330Z AUTO 03015KT CAVOK 00/M08 Q1029 BECMG 02015G28KT
  • 300300Z AUTO 03017G27KT CAVOK 01/M08 Q1029 NOSIG
  • 300230Z AUTO 04016KT 350V070 CAVOK 01/M08 Q1028 BECMG 02015G28KT

TAF TAF LFPV
Valide du 30 à 03h jusqu'au 31 à 03h UTC


300200Z 3003/3103 02015G28KT CAVOK
BECMG 3022/3024 03010KT



MET'MAP, la Météo Aéronautique d'un coup d'oeil ! - Copyright ORBIFLY Décembre 2007 - Disclaimer

ORBIFLY MET'MAP TEAM :

Programmation & Développement : Alexandra Zaïnal
Sur une idée originale de : Baudouin d'Aumeries
Assistance à la programmation : Marc-Olivier Méhu
Soutien technique & logistique : Manuel Goepfert

Contact : metmap@orbifly.com




SOURCES & CREDITS :

   NOAA